sensor_id;sensor_type;location;lat;lon;timestamp;P1;durP1;ratioP1;P2;durP2;ratioP2
71091;SDS011;58751;50.708;7.134;2023-03-08T00:00:53;11.17;;;7.37;;
71091;SDS011;58751;50.708;7.134;2023-03-08T00:03:19;9.67;;;6.37;;
71091;SDS011;58751;50.708;7.134;2023-03-08T00:05:45;9.37;;;6.47;;
71091;SDS011;58751;50.708;7.134;2023-03-08T00:08:10;9.02;;;5.90;;
71091;SDS011;58751;50.708;7.134;2023-03-08T00:10:36;10.50;;;6.07;;
71091;SDS011;58751;50.708;7.134;2023-03-08T00:13:01;8.73;;;6.07;;
71091;SDS011;58751;50.708;7.134;2023-03-08T00:15:26;9.37;;;6.10;;
71091;SDS011;58751;50.708;7.134;2023-03-08T00:17:51;10.17;;;7.43;;
71091;SDS011;58751;50.708;7.134;2023-03-08T00:20:16;9.20;;;6.20;;
71091;SDS011;58751;50.708;7.134;2023-03-08T00:22:43;8.40;;;6.53;;
71091;SDS011;58751;50.708;7.134;2023-03-08T00:25:09;9.90;;;6.00;;
71091;SDS011;58751;50.708;7.134;2023-03-08T00:27:34;10.40;;;7.30;;
71091;SDS011;58751;50.708;7.134;2023-03-08T00:29:59;7.87;;;6.10;;
71091;SDS011;58751;50.708;7.134;2023-03-08T00:32:25;9.47;;;6.53;;
71091;SDS011;58751;50.708;7.134;2023-03-08T00:34:50;8.63;;;6.53;;
71091;SDS011;58751;50.708;7.134;2023-03-08T00:37:15;13.70;;;5.73;;
71091;SDS011;58751;50.708;7.134;2023-03-08T00:39:42;10.77;;;7.30;;
71091;SDS011;58751;50.708;7.134;2023-03-08T00:42:07;7.85;;;5.72;;
71091;SDS011;58751;50.708;7.134;2023-03-08T00:44:32;9.20;;;6.20;;
71091;SDS011;58751;50.708;7.134;2023-03-08T00:46:57;8.77;;;5.97;;
71091;SDS011;58751;50.708;7.134;2023-03-08T00:49:23;6.63;;;5.63;;
71091;SDS011;58751;50.708;7.134;2023-03-08T00:51:48;9.40;;;6.10;;
71091;SDS011;58751;50.708;7.134;2023-03-08T00:54:13;8.47;;;5.80;;
71091;SDS011;58751;50.708;7.134;2023-03-08T00:56:40;6.03;;;5.10;;
71091;SDS011;58751;50.708;7.134;2023-03-08T00:59:05;7.00;;;4.38;;
71091;SDS011;58751;50.708;7.134;2023-03-08T01:01:30;5.63;;;4.47;;
71091;SDS011;58751;50.708;7.134;2023-03-08T01:03:56;6.33;;;4.00;;
71091;SDS011;58751;50.708;7.134;2023-03-08T01:06:21;8.50;;;4.77;;
71091;SDS011;58751;50.708;7.134;2023-03-08T01:08:46;6.13;;;4.00;;
71091;SDS011;58751;50.708;7.134;2023-03-08T01:11:16;7.73;;;5.53;;
71091;SDS011;58751;50.708;7.134;2023-03-08T01:13:42;7.25;;;4.20;;
71091;SDS011;58751;50.708;7.134;2023-03-08T01:16:13;7.28;;;4.35;;
71091;SDS011;58751;50.708;7.134;2023-03-08T01:18:38;5.00;;;4.07;;
71091;SDS011;58751;50.708;7.134;2023-03-08T01:21:04;6.10;;;4.00;;
71091;SDS011;58751;50.708;7.134;2023-03-08T01:23:29;7.90;;;4.50;;
71091;SDS011;58751;50.708;7.134;2023-03-08T01:25:58;6.13;;;4.43;;
71091;SDS011;58751;50.708;7.134;2023-03-08T01:28:23;5.95;;;4.35;;
71091;SDS011;58751;50.708;7.134;2023-03-08T01:30:49;5.90;;;4.53;;
71091;SDS011;58751;50.708;7.134;2023-03-08T01:33:15;8.85;;;5.53;;
71091;SDS011;58751;50.708;7.134;2023-03-08T01:35:40;9.43;;;5.63;;
71091;SDS011;58751;50.708;7.134;2023-03-08T01:38:05;8.87;;;4.97;;
71091;SDS011;58751;50.708;7.134;2023-03-08T01:40:30;9.70;;;5.87;;
71091;SDS011;58751;50.708;7.134;2023-03-08T01:42:55;9.00;;;6.27;;
71091;SDS011;58751;50.708;7.134;2023-03-08T01:48:05;10.60;;;5.78;;
71091;SDS011;58751;50.708;7.134;2023-03-08T01:50:31;10.18;;;5.35;;
71091;SDS011;58751;50.708;7.134;2023-03-08T01:52:57;7.13;;;5.00;;
71091;SDS011;58751;50.708;7.134;2023-03-08T01:55:22;8.03;;;5.53;;
71091;SDS011;58751;50.708;7.134;2023-03-08T01:57:48;10.17;;;5.53;;
71091;SDS011;58751;50.708;7.134;2023-03-08T02:00:14;9.20;;;5.95;;
71091;SDS011;58751;50.708;7.134;2023-03-08T02:02:41;8.55;;;5.00;;
71091;SDS011;58751;50.708;7.134;2023-03-08T02:05:08;13.30;;;7.15;;
71091;SDS011;58751;50.708;7.134;2023-03-08T02:07:34;10.60;;;6.80;;
71091;SDS011;58751;50.708;7.134;2023-03-08T02:09:59;12.20;;;7.30;;
71091;SDS011;58751;50.708;7.134;2023-03-08T02:12:24;11.83;;;7.00;;
71091;SDS011;58751;50.708;7.134;2023-03-08T02:14:50;10.57;;;6.70;;
71091;SDS011;58751;50.708;7.134;2023-03-08T02:17:15;12.03;;;7.20;;
71091;SDS011;58751;50.708;7.134;2023-03-08T02:19:42;12.60;;;7.80;;
71091;SDS011;58751;50.708;7.134;2023-03-08T02:22:10;12.50;;;8.70;;
71091;SDS011;58751;50.708;7.134;2023-03-08T02:24:37;12.20;;;7.60;;
71091;SDS011;58751;50.708;7.134;2023-03-08T02:27:03;12.60;;;7.13;;
71091;SDS011;58751;50.708;7.134;2023-03-08T02:29:29;13.75;;;9.30;;
71091;SDS011;58751;50.708;7.134;2023-03-08T02:31:55;13.13;;;8.30;;
71091;SDS011;58751;50.708;7.134;2023-03-08T02:34:20;13.50;;;9.00;;
71091;SDS011;58751;50.708;7.134;2023-03-08T02:36:45;15.37;;;8.47;;
71091;SDS011;58751;50.708;7.134;2023-03-08T02:39:10;13.30;;;8.50;;
71091;SDS011;58751;50.708;7.134;2023-03-08T02:41:37;11.63;;;7.97;;
71091;SDS011;58751;50.708;7.134;2023-03-08T02:44:02;17.27;;;7.30;;
71091;SDS011;58751;50.708;7.134;2023-03-08T02:46:27;10.20;;;7.37;;
71091;SDS011;58751;50.708;7.134;2023-03-08T02:48:52;12.90;;;8.57;;
71091;SDS011;58751;50.708;7.134;2023-03-08T02:51:18;12.97;;;9.33;;
71091;SDS011;58751;50.708;7.134;2023-03-08T02:53:43;13.50;;;8.40;;
71091;SDS011;58751;50.708;7.134;2023-03-08T02:56:08;14.37;;;8.87;;
71091;SDS011;58751;50.708;7.134;2023-03-08T02:58:35;12.77;;;8.17;;
71091;SDS011;58751;50.708;7.134;2023-03-08T03:01:00;16.23;;;8.90;;
71091;SDS011;58751;50.708;7.134;2023-03-08T03:03:25;16.47;;;8.80;;
71091;SDS011;58751;50.708;7.134;2023-03-08T03:05:50;15.90;;;9.77;;
71091;SDS011;58751;50.708;7.134;2023-03-08T03:08:15;15.63;;;9.50;;
71091;SDS011;58751;50.708;7.134;2023-03-08T03:10:41;17.70;;;9.50;;
71091;SDS011;58751;50.708;7.134;2023-03-08T03:13:06;14.90;;;9.87;;
71091;SDS011;58751;50.708;7.134;2023-03-08T03:15:33;17.23;;;8.93;;
71091;SDS011;58751;50.708;7.134;2023-03-08T03:18:00;19.17;;;9.35;;
71091;SDS011;58751;50.708;7.134;2023-03-08T03:20:26;15.03;;;8.53;;
71091;SDS011;58751;50.708;7.134;2023-03-08T03:22:51;18.03;;;10.63;;
71091;SDS011;58751;50.708;7.134;2023-03-08T03:25:16;15.80;;;9.30;;
71091;SDS011;58751;50.708;7.134;2023-03-08T03:27:41;17.07;;;8.67;;
71091;SDS011;58751;50.708;7.134;2023-03-08T03:30:07;13.90;;;7.80;;
71091;SDS011;58751;50.708;7.134;2023-03-08T03:32:34;10.97;;;6.83;;
71091;SDS011;58751;50.708;7.134;2023-03-08T03:34:59;12.70;;;7.57;;
71091;SDS011;58751;50.708;7.134;2023-03-08T03:37:24;15.03;;;7.37;;
71091;SDS011;58751;50.708;7.134;2023-03-08T03:39:49;12.70;;;6.80;;
71091;SDS011;58751;50.708;7.134;2023-03-08T03:42:15;11.80;;;7.10;;
71091;SDS011;58751;50.708;7.134;2023-03-08T03:44:40;14.13;;;6.93;;
71091;SDS011;58751;50.708;7.134;2023-03-08T03:47:05;15.17;;;6.30;;
71091;SDS011;58751;50.708;7.134;2023-03-08T03:49:33;11.90;;;5.32;;
71091;SDS011;58751;50.708;7.134;2023-03-08T03:51:58;10.32;;;6.95;;
71091;SDS011;58751;50.708;7.134;2023-03-08T03:54:24;11.73;;;7.23;;
71091;SDS011;58751;50.708;7.134;2023-03-08T03:56:49;10.20;;;6.90;;
71091;SDS011;58751;50.708;7.134;2023-03-08T03:59:14;13.50;;;7.07;;
71091;SDS011;58751;50.708;7.134;2023-03-08T04:01:39;7.80;;;5.73;;
71091;SDS011;58751;50.708;7.134;2023-03-08T04:04:04;11.03;;;5.93;;
71091;SDS011;58751;50.708;7.134;2023-03-08T04:06:31;6.90;;;4.97;;
71091;SDS011;58751;50.708;7.134;2023-03-08T04:08:58;8.00;;;5.13;;
71091;SDS011;58751;50.708;7.134;2023-03-08T04:11:24;8.65;;;4.70;;
71091;SDS011;58751;50.708;7.134;2023-03-08T04:13:50;8.77;;;5.38;;
71091;SDS011;58751;50.708;7.134;2023-03-08T04:16:16;6.63;;;4.77;;
71091;SDS011;58751;50.708;7.134;2023-03-08T04:18:42;7.80;;;5.05;;
71091;SDS011;58751;50.708;7.134;2023-03-08T04:21:07;9.67;;;5.60;;
71091;SDS011;58751;50.708;7.134;2023-03-08T04:23:34;8.73;;;6.13;;
71091;SDS011;58751;50.708;7.134;2023-03-08T04:25:59;9.32;;;4.90;;
71091;SDS011;58751;50.708;7.134;2023-03-08T04:28:24;6.50;;;4.90;;
71091;SDS011;58751;50.708;7.134;2023-03-08T04:30:50;8.00;;;3.60;;
71091;SDS011;58751;50.708;7.134;2023-03-08T04:33:15;6.97;;;4.77;;
71091;SDS011;58751;50.708;7.134;2023-03-08T04:35:40;7.70;;;4.47;;
71091;SDS011;58751;50.708;7.134;2023-03-08T04:38:05;8.63;;;5.17;;
71091;SDS011;58751;50.708;7.134;2023-03-08T04:40:32;8.03;;;4.93;;
71091;SDS011;58751;50.708;7.134;2023-03-08T04:42:57;7.97;;;5.00;;
71091;SDS011;58751;50.708;7.134;2023-03-08T04:45:22;9.63;;;5.90;;
71091;SDS011;58751;50.708;7.134;2023-03-08T04:47:48;6.67;;;5.10;;
71091;SDS011;58751;50.708;7.134;2023-03-08T04:50:13;10.17;;;5.40;;
71091;SDS011;58751;50.708;7.134;2023-03-08T04:52:38;7.43;;;5.63;;
71091;SDS011;58751;50.708;7.134;2023-03-08T04:55:04;6.40;;;4.40;;
71091;SDS011;58751;50.708;7.134;2023-03-08T04:57:30;11.80;;;6.07;;
71091;SDS011;58751;50.708;7.134;2023-03-08T04:59:56;9.40;;;6.18;;
71091;SDS011;58751;50.708;7.134;2023-03-08T05:02:21;13.57;;;6.40;;
71091;SDS011;58751;50.708;7.134;2023-03-08T05:04:47;12.30;;;6.90;;
71091;SDS011;58751;50.708;7.134;2023-03-08T05:07:12;13.20;;;6.70;;
71091;SDS011;58751;50.708;7.134;2023-03-08T05:09:37;14.90;;;6.70;;
71091;SDS011;58751;50.708;7.134;2023-03-08T05:12:02;9.60;;;5.70;;
71091;SDS011;58751;50.708;7.134;2023-03-08T05:14:29;11.90;;;7.10;;
71091;SDS011;58751;50.708;7.134;2023-03-08T05:16:54;12.75;;;7.47;;
71091;SDS011;58751;50.708;7.134;2023-03-08T05:19:19;12.17;;;7.03;;
71091;SDS011;58751;50.708;7.134;2023-03-08T05:21:45;8.90;;;6.30;;
71091;SDS011;58751;50.708;7.134;2023-03-08T05:24:10;16.13;;;7.07;;
71091;SDS011;58751;50.708;7.134;2023-03-08T05:26:35;9.33;;;5.83;;
71091;SDS011;58751;50.708;7.134;2023-03-08T05:29:00;11.27;;;6.77;;
71091;SDS011;58751;50.708;7.134;2023-03-08T05:31:27;15.40;;;7.77;;
71091;SDS011;58751;50.708;7.134;2023-03-08T05:33:52;10.50;;;6.65;;
71091;SDS011;58751;50.708;7.134;2023-03-08T05:36:18;12.07;;;7.43;;
71091;SDS011;58751;50.708;7.134;2023-03-08T05:38:43;10.33;;;5.77;;
71091;SDS011;58751;50.708;7.134;2023-03-08T05:41:10;9.33;;;6.23;;
71091;SDS011;58751;50.708;7.134;2023-03-08T05:43:35;10.65;;;6.40;;
71091;SDS011;58751;50.708;7.134;2023-03-08T05:46:01;11.37;;;6.60;;
71091;SDS011;58751;50.708;7.134;2023-03-08T05:48:28;11.80;;;6.00;;
71091;SDS011;58751;50.708;7.134;2023-03-08T05:50:53;10.73;;;7.20;;
71091;SDS011;58751;50.708;7.134;2023-03-08T05:53:18;12.20;;;7.30;;
71091;SDS011;58751;50.708;7.134;2023-03-08T05:55:43;16.10;;;9.97;;
71091;SDS011;58751;50.708;7.134;2023-03-08T05:58:09;13.10;;;7.17;;
71091;SDS011;58751;50.708;7.134;2023-03-08T06:00:34;11.37;;;6.77;;
71091;SDS011;58751;50.708;7.134;2023-03-08T06:02:59;15.10;;;6.33;;
71091;SDS011;58751;50.708;7.134;2023-03-08T06:05:26;8.53;;;5.60;;
71091;SDS011;58751;50.708;7.134;2023-03-08T06:07:51;12.45;;;6.80;;
71091;SDS011;58751;50.708;7.134;2023-03-08T06:10:16;10.03;;;6.47;;
71091;SDS011;58751;50.708;7.134;2023-03-08T06:12:41;9.93;;;6.90;;
71091;SDS011;58751;50.708;7.134;2023-03-08T06:15:07;10.90;;;7.77;;
71091;SDS011;58751;50.708;7.134;2023-03-08T06:17:32;12.77;;;6.77;;
71091;SDS011;58751;50.708;7.134;2023-03-08T06:19:57;12.13;;;7.10;;
71091;SDS011;58751;50.708;7.134;2023-03-08T06:22:24;12.87;;;7.50;;
71091;SDS011;58751;50.708;7.134;2023-03-08T06:24:49;10.57;;;7.05;;
71091;SDS011;58751;50.708;7.134;2023-03-08T06:27:15;12.77;;;7.53;;
71091;SDS011;58751;50.708;7.134;2023-03-08T06:29:40;13.63;;;8.00;;
71091;SDS011;58751;50.708;7.134;2023-03-08T06:32:05;12.57;;;7.70;;
71091;SDS011;58751;50.708;7.134;2023-03-08T06:34:31;14.23;;;8.23;;
71091;SDS011;58751;50.708;7.134;2023-03-08T06:36:56;13.70;;;8.27;;
71091;SDS011;58751;50.708;7.134;2023-03-08T06:39:24;10.60;;;6.95;;
71091;SDS011;58751;50.708;7.134;2023-03-08T06:41:49;9.65;;;7.15;;
71091;SDS011;58751;50.708;7.134;2023-03-08T06:44:14;13.30;;;9.60;;
71091;SDS011;58751;50.708;7.134;2023-03-08T06:46:39;13.00;;;7.97;;
71091;SDS011;58751;50.708;7.134;2023-03-08T06:49:04;11.73;;;8.00;;
71091;SDS011;58751;50.708;7.134;2023-03-08T06:51:30;9.87;;;6.63;;
71091;SDS011;58751;50.708;7.134;2023-03-08T06:53:55;13.67;;;8.07;;
71091;SDS011;58751;50.708;7.134;2023-03-08T06:56:21;10.70;;;7.53;;
71091;SDS011;58751;50.708;7.134;2023-03-08T06:58:47;11.98;;;8.15;;
71091;SDS011;58751;50.708;7.134;2023-03-08T07:01:12;14.17;;;7.80;;
71091;SDS011;58751;50.708;7.134;2023-03-08T07:03:37;11.10;;;6.77;;
71091;SDS011;58751;50.708;7.134;2023-03-08T07:06:03;11.93;;;6.87;;
71091;SDS011;58751;50.708;7.134;2023-03-08T07:08:29;12.70;;;8.10;;
71091;SDS011;58751;50.708;7.134;2023-03-08T07:10:55;9.20;;;6.50;;
71091;SDS011;58751;50.708;7.134;2023-03-08T07:13:21;11.43;;;7.17;;
71091;SDS011;58751;50.708;7.134;2023-03-08T07:15:46;10.95;;;8.02;;
71091;SDS011;58751;50.708;7.134;2023-03-08T07:18:12;12.00;;;8.60;;
71091;SDS011;58751;50.708;7.134;2023-03-08T07:20:37;13.50;;;7.27;;
71091;SDS011;58751;50.708;7.134;2023-03-08T07:23:02;14.53;;;8.73;;
71091;SDS011;58751;50.708;7.134;2023-03-08T07:25:27;10.60;;;7.87;;
71091;SDS011;58751;50.708;7.134;2023-03-08T07:27:52;10.50;;;7.70;;
71091;SDS011;58751;50.708;7.134;2023-03-08T07:30:19;11.17;;;7.60;;
71091;SDS011;58751;50.708;7.134;2023-03-08T07:32:44;12.98;;;8.82;;
71091;SDS011;58751;50.708;7.134;2023-03-08T07:35:10;12.63;;;8.20;;
71091;SDS011;58751;50.708;7.134;2023-03-08T07:37:36;13.73;;;8.38;;
71091;SDS011;58751;50.708;7.134;2023-03-08T07:40:01;18.50;;;9.60;;
71091;SDS011;58751;50.708;7.134;2023-03-08T07:42:26;14.27;;;8.73;;
71091;SDS011;58751;50.708;7.134;2023-03-08T07:44:52;11.83;;;8.03;;
71091;SDS011;58751;50.708;7.134;2023-03-08T07:47:18;14.50;;;9.33;;
71091;SDS011;58751;50.708;7.134;2023-03-08T07:49:44;11.23;;;7.00;;
71091;SDS011;58751;50.708;7.134;2023-03-08T07:52:09;14.10;;;8.93;;
71091;SDS011;58751;50.708;7.134;2023-03-08T07:54:34;13.43;;;7.97;;
71091;SDS011;58751;50.708;7.134;2023-03-08T07:56:59;9.13;;;6.67;;
71091;SDS011;58751;50.708;7.134;2023-03-08T07:59:24;11.47;;;7.60;;
71091;SDS011;58751;50.708;7.134;2023-03-08T08:01:50;10.50;;;7.03;;
71091;SDS011;58751;50.708;7.134;2023-03-08T08:04:16;13.07;;;7.87;;
71091;SDS011;58751;50.708;7.134;2023-03-08T08:06:41;12.52;;;7.95;;
71091;SDS011;58751;50.708;7.134;2023-03-08T08:09:07;12.10;;;8.23;;
71091;SDS011;58751;50.708;7.134;2023-03-08T08:11:33;14.43;;;9.30;;
71091;SDS011;58751;50.708;7.134;2023-03-08T08:13:58;12.03;;;9.27;;
71091;SDS011;58751;50.708;7.134;2023-03-08T08:16:23;12.03;;;8.80;;
71091;SDS011;58751;50.708;7.134;2023-03-08T08:18:50;14.93;;;9.40;;
71091;SDS011;58751;50.708;7.134;2023-03-08T08:21:17;15.40;;;10.23;;
71091;SDS011;58751;50.708;7.134;2023-03-08T08:23:42;15.35;;;9.48;;
71091;SDS011;58751;50.708;7.134;2023-03-08T08:26:08;16.33;;;11.73;;
71091;SDS011;58751;50.708;7.134;2023-03-08T08:28:34;15.73;;;11.05;;
71091;SDS011;58751;50.708;7.134;2023-03-08T08:31:01;16.38;;;11.70;;
71091;SDS011;58751;50.708;7.134;2023-03-08T08:33:27;14.60;;;10.20;;
71091;SDS011;58751;50.708;7.134;2023-03-08T08:35:52;15.33;;;10.60;;
71091;SDS011;58751;50.708;7.134;2023-03-08T08:38:18;16.50;;;10.00;;
71091;SDS011;58751;50.708;7.134;2023-03-08T08:40:44;15.07;;;11.45;;
71091;SDS011;58751;50.708;7.134;2023-03-08T08:43:09;14.30;;;10.10;;
71091;SDS011;58751;50.708;7.134;2023-03-08T08:45:34;14.83;;;9.80;;
71091;SDS011;58751;50.708;7.134;2023-03-08T08:47:59;18.80;;;11.23;;
71091;SDS011;58751;50.708;7.134;2023-03-08T08:50:24;20.77;;;12.90;;
71091;SDS011;58751;50.708;7.134;2023-03-08T08:52:50;17.07;;;11.30;;
71091;SDS011;58751;50.708;7.134;2023-03-08T08:55:16;19.93;;;12.93;;
71091;SDS011;58751;50.708;7.134;2023-03-08T08:57:41;17.92;;;12.23;;
71091;SDS011;58751;50.708;7.134;2023-03-08T09:00:07;20.43;;;12.80;;
71091;SDS011;58751;50.708;7.134;2023-03-08T09:02:32;24.67;;;13.70;;
71091;SDS011;58751;50.708;7.134;2023-03-08T09:04:58;18.03;;;13.07;;
71091;SDS011;58751;50.708;7.134;2023-03-08T09:07:23;17.23;;;11.87;;
71091;SDS011;58751;50.708;7.134;2023-03-08T09:09:48;22.10;;;13.43;;
71091;SDS011;58751;50.708;7.134;2023-03-08T09:12:15;16.67;;;12.13;;
71091;SDS011;58751;50.708;7.134;2023-03-08T09:14:40;21.58;;;13.63;;
71091;SDS011;58751;50.708;7.134;2023-03-08T09:17:05;18.93;;;13.03;;
71091;SDS011;58751;50.708;7.134;2023-03-08T09:19:30;19.30;;;13.13;;
71091;SDS011;58751;50.708;7.134;2023-03-08T09:21:55;25.00;;;14.63;;
71091;SDS011;58751;50.708;7.134;2023-03-08T09:24:21;22.67;;;14.07;;
71091;SDS011;58751;50.708;7.134;2023-03-08T09:26:46;25.03;;;13.37;;
71091;SDS011;58751;50.708;7.134;2023-03-08T09:29:13;18.80;;;13.07;;
71091;SDS011;58751;50.708;7.134;2023-03-08T09:31:38;21.33;;;13.68;;
71091;SDS011;58751;50.708;7.134;2023-03-08T09:34:04;20.90;;;14.10;;
71091;SDS011;58751;50.708;7.134;2023-03-08T09:36:29;19.98;;;12.75;;
71091;SDS011;58751;50.708;7.134;2023-03-08T09:38:55;18.83;;;14.17;;
71091;SDS011;58751;50.708;7.134;2023-03-08T09:41:27;15.53;;;11.47;;
71091;SDS011;58751;50.708;7.134;2023-03-08T09:44:05;18.67;;;12.02;;
71091;SDS011;58751;50.708;7.134;2023-03-08T09:46:37;15.90;;;12.00;;
71091;SDS011;58751;50.708;7.134;2023-03-08T09:49:04;19.90;;;12.65;;
71091;SDS011;58751;50.708;7.134;2023-03-08T09:51:35;18.70;;;11.43;;
71091;SDS011;58751;50.708;7.134;2023-03-08T09:54:03;18.27;;;12.20;;
71091;SDS011;58751;50.708;7.134;2023-03-08T09:56:30;19.55;;;14.00;;
71091;SDS011;58751;50.708;7.134;2023-03-08T09:58:57;21.83;;;13.75;;
71091;SDS011;58751;50.708;7.134;2023-03-08T10:01:26;15.67;;;11.60;;
71091;SDS011;58751;50.708;7.134;2023-03-08T10:06:42;14.23;;;9.82;;
71091;SDS011;58751;50.708;7.134;2023-03-08T10:09:13;15.95;;;10.55;;
71091;SDS011;58751;50.708;7.134;2023-03-08T10:11:44;15.93;;;11.57;;
71091;SDS011;58751;50.708;7.134;2023-03-08T10:14:14;13.52;;;11.35;;
71091;SDS011;58751;50.708;7.134;2023-03-08T10:16:42;17.00;;;11.93;;
71091;SDS011;58751;50.708;7.134;2023-03-08T10:19:11;17.60;;;12.10;;
71091;SDS011;58751;50.708;7.134;2023-03-08T10:21:38;16.30;;;10.30;;
71091;SDS011;58751;50.708;7.134;2023-03-08T10:24:11;14.38;;;10.40;;
71091;SDS011;58751;50.708;7.134;2023-03-08T10:26:38;16.73;;;11.15;;
71091;SDS011;58751;50.708;7.134;2023-03-08T10:29:04;13.57;;;10.05;;
71091;SDS011;58751;50.708;7.134;2023-03-08T10:31:30;12.53;;;10.00;;
71091;SDS011;58751;50.708;7.134;2023-03-08T10:34:01;13.55;;;11.15;;
71091;SDS011;58751;50.708;7.134;2023-03-08T10:39:14;17.40;;;9.93;;
71091;SDS011;58751;50.708;7.134;2023-03-08T10:41:40;15.73;;;10.60;;
71091;SDS011;58751;50.708;7.134;2023-03-08T10:44:09;15.00;;;10.50;;
71091;SDS011;58751;50.708;7.134;2023-03-08T10:46:43;14.50;;;10.23;;
71091;SDS011;58751;50.708;7.134;2023-03-08T10:49:13;13.23;;;10.60;;
71091;SDS011;58751;50.708;7.134;2023-03-08T10:51:39;15.20;;;10.20;;
71091;SDS011;58751;50.708;7.134;2023-03-08T10:54:05;15.30;;;11.30;;
71091;SDS011;58751;50.708;7.134;2023-03-08T10:56:35;14.68;;;10.00;;
71091;SDS011;58751;50.708;7.134;2023-03-08T10:59:01;13.82;;;10.25;;
71091;SDS011;58751;50.708;7.134;2023-03-08T11:01:27;15.23;;;11.87;;
71091;SDS011;58751;50.708;7.134;2023-03-08T11:04:00;15.73;;;11.05;;
71091;SDS011;58751;50.708;7.134;2023-03-08T11:06:25;18.13;;;12.13;;
71091;SDS011;58751;50.708;7.134;2023-03-08T11:08:51;17.23;;;10.73;;
71091;SDS011;58751;50.708;7.134;2023-03-08T11:11:16;16.88;;;12.13;;
71091;SDS011;58751;50.708;7.134;2023-03-08T11:13:43;15.30;;;11.60;;
71091;SDS011;58751;50.708;7.134;2023-03-08T11:18:55;14.60;;;11.55;;
71091;SDS011;58751;50.708;7.134;2023-03-08T11:21:23;14.70;;;11.15;;
71091;SDS011;58751;50.708;7.134;2023-03-08T11:23:52;16.42;;;12.00;;
71091;SDS011;58751;50.708;7.134;2023-03-08T11:26:23;16.45;;;12.95;;
71091;SDS011;58751;50.708;7.134;2023-03-08T11:28:57;14.05;;;11.70;;
71091;SDS011;58751;50.708;7.134;2023-03-08T11:31:27;14.27;;;11.90;;
71091;SDS011;58751;50.708;7.134;2023-03-08T11:34:03;15.48;;;10.57;;
71091;SDS011;58751;50.708;7.134;2023-03-08T11:36:33;13.45;;;9.43;;
71091;SDS011;58751;50.708;7.134;2023-03-08T11:39:01;9.63;;;8.63;;
71091;SDS011;58751;50.708;7.134;2023-03-08T11:41:32;13.13;;;10.95;;
71091;SDS011;58751;50.708;7.134;2023-03-08T11:46:43;13.07;;;10.43;;
71091;SDS011;58751;50.708;7.134;2023-03-08T11:49:18;10.60;;;9.50;;
71091;SDS011;58751;50.708;7.134;2023-03-08T11:51:49;12.43;;;9.38;;
71091;SDS011;58751;50.708;7.134;2023-03-08T11:54:18;11.82;;;9.60;;
71091;SDS011;58751;50.708;7.134;2023-03-08T11:56:45;12.57;;;9.68;;
71091;SDS011;58751;50.708;7.134;2023-03-08T11:59:14;12.90;;;10.95;;
71091;SDS011;58751;50.708;7.134;2023-03-08T12:01:44;12.43;;;9.48;;
71091;SDS011;58751;50.708;7.134;2023-03-08T12:04:12;11.10;;;9.90;;
71091;SDS011;58751;50.708;7.134;2023-03-08T12:06:40;10.50;;;9.40;;
71091;SDS011;58751;50.708;7.134;2023-03-08T12:09:08;10.23;;;8.95;;
71091;SDS011;58751;50.708;7.134;2023-03-08T12:11:38;12.00;;;9.98;;
71091;SDS011;58751;50.708;7.134;2023-03-08T12:14:10;11.02;;;9.93;;
71091;SDS011;58751;50.708;7.134;2023-03-08T12:16:38;11.10;;;9.98;;
71091;SDS011;58751;50.708;7.134;2023-03-08T12:19:07;12.75;;;9.55;;
71091;SDS011;58751;50.708;7.134;2023-03-08T12:21:37;11.63;;;8.90;;
71091;SDS011;58751;50.708;7.134;2023-03-08T12:24:13;10.50;;;9.40;;
71091;SDS011;58751;50.708;7.134;2023-03-08T12:26:40;9.52;;;8.52;;
71091;SDS011;58751;50.708;7.134;2023-03-08T12:29:10;11.25;;;9.50;;
71091;SDS011;58751;50.708;7.134;2023-03-08T12:31:38;11.15;;;9.55;;
71091;SDS011;58751;50.708;7.134;2023-03-08T12:34:12;9.60;;;8.30;;
71091;SDS011;58751;50.708;7.134;2023-03-08T12:36:38;8.20;;;7.40;;
71091;SDS011;58751;50.708;7.134;2023-03-08T12:39:04;8.77;;;7.88;;
71091;SDS011;58751;50.708;7.134;2023-03-08T12:41:30;8.70;;;7.80;;
71091;SDS011;58751;50.708;7.134;2023-03-08T12:44:00;9.30;;;8.40;;
71091;SDS011;58751;50.708;7.134;2023-03-08T12:46:25;8.00;;;7.20;;
71091;SDS011;58751;50.708;7.134;2023-03-08T12:48:51;9.63;;;7.70;;
71091;SDS011;58751;50.708;7.134;2023-03-08T12:51:20;10.30;;;8.27;;
71091;SDS011;58751;50.708;7.134;2023-03-08T12:53:54;10.10;;;9.05;;
71091;SDS011;58751;50.708;7.134;2023-03-08T12:56:21;9.95;;;8.10;;
71091;SDS011;58751;50.708;7.134;2023-03-08T12:58:47;9.57;;;8.65;;
71091;SDS011;58751;50.708;7.134;2023-03-08T13:01:22;8.80;;;8.00;;
71091;SDS011;58751;50.708;7.134;2023-03-08T13:03:49;7.68;;;6.88;;
71091;SDS011;58751;50.708;7.134;2023-03-08T13:06:42;8.10;;;7.30;;
71091;SDS011;58751;50.708;7.134;2023-03-08T13:09:13;9.20;;;8.20;;
71091;SDS011;58751;50.708;7.134;2023-03-08T13:11:40;9.45;;;8.07;;
71091;SDS011;58751;50.708;7.134;2023-03-08T13:14:21;9.40;;;8.27;;
71091;SDS011;58751;50.708;7.134;2023-03-08T13:16:47;7.15;;;6.45;;
71091;SDS011;58751;50.708;7.134;2023-03-08T13:19:16;7.60;;;6.90;;
71091;SDS011;58751;50.708;7.134;2023-03-08T13:21:47;8.57;;;7.60;;
71091;SDS011;58751;50.708;7.134;2023-03-08T13:24:14;8.50;;;7.30;;
71091;SDS011;58751;50.708;7.134;2023-03-08T13:26:52;9.68;;;8.27;;
71091;SDS011;58751;50.708;7.134;2023-03-08T13:29:21;7.15;;;6.55;;
71091;SDS011;58751;50.708;7.134;2023-03-08T13:31:46;8.03;;;7.23;;
71091;SDS011;58751;50.708;7.134;2023-03-08T13:34:22;8.47;;;7.07;;
71091;SDS011;58751;50.708;7.134;2023-03-08T13:36:49;9.45;;;7.13;;
71091;SDS011;58751;50.708;7.134;2023-03-08T13:39:17;9.85;;;8.13;;
71091;SDS011;58751;50.708;7.134;2023-03-08T13:41:43;8.82;;;7.95;;
71091;SDS011;58751;50.708;7.134;2023-03-08T13:44:13;7.18;;;6.47;;
71091;SDS011;58751;50.708;7.134;2023-03-08T13:46:39;9.00;;;8.07;;
71091;SDS011;58751;50.708;7.134;2023-03-08T13:49:08;11.07;;;7.13;;
71091;SDS011;58751;50.708;7.134;2023-03-08T13:51:36;7.90;;;7.20;;
71091;SDS011;58751;50.708;7.134;2023-03-08T13:54:03;7.53;;;6.83;;
71091;SDS011;58751;50.708;7.134;2023-03-08T13:56:28;8.40;;;6.90;;
71091;SDS011;58751;50.708;7.134;2023-03-08T13:58:54;7.80;;;6.47;;
71091;SDS011;58751;50.708;7.134;2023-03-08T14:01:20;7.75;;;6.45;;
71091;SDS011;58751;50.708;7.134;2023-03-08T14:03:46;7.40;;;6.40;;
71091;SDS011;58751;50.708;7.134;2023-03-08T14:06:15;7.07;;;6.17;;
71091;SDS011;58751;50.708;7.134;2023-03-08T14:08:41;12.60;;;7.85;;
71091;SDS011;58751;50.708;7.134;2023-03-08T14:11:07;8.10;;;7.30;;
71091;SDS011;58751;50.708;7.134;2023-03-08T14:13:38;8.60;;;7.70;;
71091;SDS011;58751;50.708;7.134;2023-03-08T14:16:04;7.10;;;6.40;;
71091;SDS011;58751;50.708;7.134;2023-03-08T14:18:31;10.50;;;6.65;;
71091;SDS011;58751;50.708;7.134;2023-03-08T14:20:58;9.93;;;6.50;;
71091;SDS011;58751;50.708;7.134;2023-03-08T14:23:23;8.48;;;6.75;;
71091;SDS011;58751;50.708;7.134;2023-03-08T14:25:54;8.95;;;6.93;;
71091;SDS011;58751;50.708;7.134;2023-03-08T14:28:33;7.32;;;6.00;;
71091;SDS011;58751;50.708;7.134;2023-03-08T14:30:58;8.38;;;6.45;;
71091;SDS011;58751;50.708;7.134;2023-03-08T14:33:23;6.53;;;5.80;;
71091;SDS011;58751;50.708;7.134;2023-03-08T14:35:51;5.83;;;5.10;;
71091;SDS011;58751;50.708;7.134;2023-03-08T14:38:19;5.93;;;5.22;;
71091;SDS011;58751;50.708;7.134;2023-03-08T14:40:46;7.28;;;5.60;;
71091;SDS011;58751;50.708;7.134;2023-03-08T14:43:13;6.35;;;5.10;;
71091;SDS011;58751;50.708;7.134;2023-03-08T14:45:49;5.97;;;4.07;;